createdAt,value
2018-03-25T00:00:06.017Z,99821.47
2018-03-25T00:02:34.310Z,99820.53
2018-03-25T00:05:06.347Z,99820.42
2018-03-25T00:07:34.682Z,99818.37
2018-03-25T00:10:05.749Z,99830.23
2018-03-25T00:12:34.063Z,99823.16
2018-03-25T00:15:06.082Z,99821.33
2018-03-25T00:17:34.396Z,99823.92
2018-03-25T00:20:05.918Z,99824.55
2018-03-25T00:22:34.218Z,99825.95
2018-03-25T00:25:06.108Z,99825.78
2018-03-25T00:27:34.397Z,99825.15
2018-03-25T00:30:06.003Z,99820.73
2018-03-25T00:32:34.486Z,99819.59
2018-03-25T00:35:05.705Z,99820.29
2018-03-25T00:37:34.009Z,99821.59
2018-03-25T00:40:06.089Z,99819.94
2018-03-25T00:42:34.384Z,99825.36
2018-03-25T00:45:06.007Z,99829.53
2018-03-25T00:47:34.962Z,99830.89
2018-03-25T00:50:05.737Z,99827.02
2018-03-25T00:52:34.040Z,99826.09
2018-03-25T00:55:05.630Z,99833.72
2018-03-25T00:57:33.911Z,99827.95
2018-03-25T01:00:05.450Z,99827.17
2018-03-25T01:02:33.736Z,99833.25
2018-03-25T01:05:05.185Z,99834.70
2018-03-25T01:07:33.524Z,99831.41
2018-03-25T01:10:05.616Z,99835.21
2018-03-25T01:12:33.894Z,99835.30
2018-03-25T01:15:05.141Z,99835.99
2018-03-25T01:17:33.441Z,99829.26
2018-03-25T01:20:08.270Z,99829.62
2018-03-25T01:22:36.689Z,99828.94
2018-03-25T01:25:05.957Z,99827.63
2018-03-25T01:27:34.296Z,99827.20
2018-03-25T01:30:05.644Z,99827.20
2018-03-25T01:32:33.952Z,99823.54
2018-03-25T01:35:05.315Z,99825.27
2018-03-25T01:37:33.604Z,99825.95
2018-03-25T01:40:05.126Z,99825.93
2018-03-25T01:42:33.419Z,99822.73
2018-03-25T01:45:08.193Z,99829.26
2018-03-25T01:47:36.468Z,99821.28
2018-03-25T01:50:07.121Z,99825.37
2018-03-25T01:52:35.414Z,99819.81
2018-03-25T01:55:07.250Z,99818.56
2018-03-25T01:57:35.576Z,99822.13
2018-03-25T02:00:06.789Z,99820.66
2018-03-25T02:02:35.273Z,99818.99
2018-03-25T02:05:07.299Z,99823.98
2018-03-25T02:07:35.588Z,99819.09
2018-03-25T02:10:07.793Z,99822.17
2018-03-25T02:12:36.079Z,99820.15
2018-03-25T02:15:06.094Z,99827.92
2018-03-25T02:17:34.581Z,99826.29
2018-03-25T02:20:06.734Z,99826.65
2018-03-25T02:22:35.021Z,99834.55
2018-03-25T02:25:06.645Z,99829.16
2018-03-25T02:27:34.922Z,99835.97
2018-03-25T02:30:06.085Z,99836.38
2018-03-25T02:32:34.370Z,99840.87
2018-03-25T02:35:05.760Z,99844.48
2018-03-25T02:37:34.560Z,99846.28
2018-03-25T02:40:05.938Z,99842.55
2018-03-25T02:42:34.215Z,99844.42
2018-03-25T02:45:06.148Z,99847.53
2018-03-25T02:47:34.401Z,99849.92
2018-03-25T02:50:08.380Z,99851.84
2018-03-25T02:52:36.700Z,99856.59
2018-03-25T02:55:06.795Z,99853.76
2018-03-25T02:57:35.072Z,99853.09
2018-03-25T03:00:06.978Z,99858.27
2018-03-25T03:02:35.275Z,99854.87
2018-03-25T03:05:07.382Z,99859.03
2018-03-25T03:07:35.692Z,99861.45
2018-03-25T03:10:07.881Z,99860.25
2018-03-25T03:12:36.164Z,99865.31
2018-03-25T03:15:07.351Z,99859.21
2018-03-25T03:17:35.690Z,99865.66
2018-03-25T03:20:07.278Z,99873.48
2018-03-25T03:22:35.617Z,99868.45
2018-03-25T03:25:07.571Z,99878.98
2018-03-25T03:27:36.362Z,99881.08
2018-03-25T03:30:06.164Z,99876.02
2018-03-25T03:32:34.512Z,99877.05
2018-03-25T03:35:06.132Z,99878.54
2018-03-25T03:37:34.822Z,99885.31
2018-03-25T03:40:06.790Z,99890.69
2018-03-25T03:42:35.077Z,99888.08
2018-03-25T03:45:06.695Z,99885.59
2018-03-25T03:47:34.994Z,99890.08
2018-03-25T03:50:06.041Z,99893.05
2018-03-25T03:52:34.340Z,99895.21
2018-03-25T03:55:05.764Z,99902.16
2018-03-25T03:57:34.097Z,99901.58
2018-03-25T04:00:09.291Z,99895.81
2018-03-25T04:02:37.672Z,99900.52
2018-03-25T04:05:07.643Z,99902.98
2018-03-25T04:07:35.956Z,99911.96
2018-03-25T04:10:06.380Z,99914.30
2018-03-25T04:12:34.653Z,99915.52
2018-03-25T04:15:06.556Z,99921.22
2018-03-25T04:17:34.833Z,99922.92
2018-03-25T04:20:08.802Z,99923.98
2018-03-25T04:22:37.085Z,99930.39
2018-03-25T04:25:06.757Z,99927.51
2018-03-25T04:27:35.043Z,99922.68
2018-03-25T04:30:06.672Z,99926.96
2018-03-25T04:32:34.950Z,99924.44
2018-03-25T04:35:05.760Z,99932.18
2018-03-25T04:37:34.100Z,99927.56
2018-03-25T04:40:06.077Z,99929.48
2018-03-25T04:42:34.351Z,99934.64
2018-03-25T04:45:08.421Z,99929.02
2018-03-25T04:47:36.693Z,99930.92
2018-03-25T04:50:06.636Z,99933.42
2018-03-25T04:52:34.927Z,99933.58
2018-03-25T04:55:05.775Z,99936.73
2018-03-25T04:57:34.037Z,99937.95
2018-03-25T05:00:07.263Z,99937.34
2018-03-25T05:02:35.542Z,99943.94
2018-03-25T05:05:06.907Z,99944.14
2018-03-25T05:07:35.225Z,99936.36
2018-03-25T05:10:06.934Z,99939.32
2018-03-25T05:12:36.439Z,99936.98
2018-03-25T05:15:06.635Z,99951.38
2018-03-25T05:17:35.146Z,99952.84
2018-03-25T05:20:07.173Z,99954.48
2018-03-25T05:22:35.484Z,99960.89
2018-03-25T05:25:07.390Z,99963.09
2018-03-25T05:27:35.716Z,99966.52
2018-03-25T05:30:07.147Z,99964.91
2018-03-25T05:32:35.454Z,99954.65
2018-03-25T05:35:07.294Z,99964.27
2018-03-25T05:37:36.235Z,99969.75
2018-03-25T05:40:05.883Z,99965.58
2018-03-25T05:42:34.845Z,99963.30
2018-03-25T05:45:05.851Z,99970.23
2018-03-25T05:47:34.892Z,99974.36
2018-03-25T05:50:06.129Z,99974.84
2018-03-25T05:52:34.658Z,99970.08
2018-03-25T05:55:06.841Z,99982.49
2018-03-25T05:57:35.124Z,99977.17
2018-03-25T06:00:06.746Z,99983.16
2018-03-25T06:02:35.059Z,99980.67
2018-03-25T06:05:06.649Z,99980.46
2018-03-25T06:07:35.037Z,99981.72
2018-03-25T06:10:06.493Z,99981.58
2018-03-25T06:12:34.782Z,99989.55
2018-03-25T06:15:06.613Z,99995.47
2018-03-25T06:17:35.596Z,99984.68
2018-03-25T06:20:07.127Z,100002.63
2018-03-25T06:22:35.677Z,100006.98
2018-03-25T06:25:05.901Z,100011.38
2018-03-25T06:27:34.195Z,100010.43
2018-03-25T06:30:07.093Z,100009.41
2018-03-25T06:32:35.388Z,100014.97
2018-03-25T06:35:07.179Z,99989.81
2018-03-25T06:37:35.683Z,100020.77
2018-03-25T06:40:07.738Z,100025.66
2018-03-25T06:42:36.058Z,100032.86
2018-03-25T06:45:07.773Z,100032.95
2018-03-25T06:47:36.067Z,100033.77
2018-03-25T06:50:08.063Z,100030.41
2018-03-25T06:52:36.381Z,100031.39
2018-03-25T06:55:07.635Z,100035.64
2018-03-25T06:57:36.105Z,100038.39
2018-03-25T07:00:06.227Z,100042.92
2018-03-25T07:02:34.525Z,100049.88
2018-03-25T07:05:06.644Z,100049.12
2018-03-25T07:07:35.097Z,100052.45
2018-03-25T07:10:07.203Z,100061.20
2018-03-25T07:12:35.553Z,100065.20
2018-03-25T07:15:07.333Z,100060.01
2018-03-25T07:17:35.634Z,100060.41
2018-03-25T07:20:07.472Z,100056.23
2018-03-25T07:22:35.778Z,100059.18
2018-03-25T07:25:07.290Z,100058.05
2018-03-25T07:27:35.596Z,100066.73
2018-03-25T07:30:07.158Z,100069.31
2018-03-25T07:32:35.470Z,100069.62
2018-03-25T07:35:07.005Z,100070.75
2018-03-25T07:37:35.302Z,100074.27
2018-03-25T07:40:07.209Z,100077.52
2018-03-25T07:42:35.556Z,100072.69
2018-03-25T07:45:07.616Z,100075.44
2018-03-25T07:47:35.896Z,100074.25
2018-03-25T07:50:05.982Z,100075.20
2018-03-25T07:52:34.309Z,100075.09
2018-03-25T07:55:09.368Z,100067.53
2018-03-25T07:57:37.681Z,100078.83
2018-03-25T08:00:06.012Z,100078.45
2018-03-25T08:02:34.292Z,100073.40
2018-03-25T08:05:09.316Z,100065.20
2018-03-25T08:07:37.594Z,100068.30
2018-03-25T08:10:10.213Z,100067.48
2018-03-25T08:12:38.503Z,100070.70
2018-03-25T08:15:07.054Z,100073.21
2018-03-25T08:17:35.661Z,100077.14
2018-03-25T08:20:07.778Z,100066.25
2018-03-25T08:22:36.075Z,100069.47
2018-03-25T08:25:06.038Z,100066.94
2018-03-25T08:27:34.352Z,100075.44
2018-03-25T08:30:06.390Z,100079.42
2018-03-25T08:32:35.302Z,100080.84
2018-03-25T08:35:07.140Z,100080.14
2018-03-25T08:37:35.524Z,100077.11
2018-03-25T08:40:07.666Z,100077.53
2018-03-25T08:42:36.466Z,100075.52
2018-03-25T08:45:07.808Z,100070.05
2018-03-25T08:47:36.869Z,100069.91
2018-03-25T08:50:06.620Z,100077.44
2018-03-25T08:52:35.065Z,100065.26
2018-03-25T08:55:07.093Z,100073.05
2018-03-25T08:57:35.386Z,100065.67
2018-03-25T09:00:06.999Z,100083.52
2018-03-25T09:02:35.323Z,100083.39
2018-03-25T09:05:07.265Z,100085.84
2018-03-25T09:07:35.922Z,100081.48
2018-03-25T09:10:07.785Z,100081.34
2018-03-25T09:12:36.225Z,100074.75
2018-03-25T09:15:07.468Z,100082.59
2018-03-25T09:17:35.780Z,100069.30
2018-03-25T09:20:08.022Z,100081.06
2018-03-25T09:22:36.455Z,100078.01
2018-03-25T09:25:06.665Z,100085.48
2018-03-25T09:27:35.454Z,100080.65
2018-03-25T09:30:07.492Z,100082.98
2018-03-25T09:32:35.825Z,100077.87
2018-03-25T09:35:07.383Z,100071.52
2018-03-25T09:37:36.211Z,100075.83
2018-03-25T09:40:07.755Z,100071.09
2018-03-25T09:42:36.237Z,100068.15
2018-03-25T09:45:07.869Z,100071.88
2018-03-25T09:47:36.180Z,100067.73
2018-03-25T09:50:07.495Z,100074.17
2018-03-25T09:52:35.802Z,100075.44
2018-03-25T09:55:08.041Z,100081.05
2018-03-25T09:57:36.348Z,100086.28
2018-03-25T10:00:10.485Z,100083.63
2018-03-25T10:02:43.009Z,100084.86
2018-03-25T10:05:15.097Z,100077.62
2018-03-25T10:07:43.406Z,100088.27
2018-03-25T10:10:11.838Z,100080.97
2018-03-25T10:12:40.113Z,100079.73
2018-03-25T10:15:08.445Z,100080.08
2018-03-25T10:17:36.725Z,100090.67
2018-03-25T10:20:06.486Z,100080.83
2018-03-25T10:22:34.793Z,100079.05
2018-03-25T10:25:06.363Z,100073.61
2018-03-25T10:27:34.651Z,100082.09
2018-03-25T10:30:08.626Z,100089.13
2018-03-25T10:32:36.905Z,100089.50
2018-03-25T10:35:10.521Z,100088.41
2018-03-25T10:37:38.953Z,100087.75
2018-03-25T10:40:07.582Z,100086.71
2018-03-25T10:42:35.934Z,100092.71
2018-03-25T10:45:07.204Z,100096.80
2018-03-25T10:47:36.514Z,100093.56
2018-03-25T10:50:07.958Z,100091.69
2018-03-25T10:52:40.176Z,100093.63
2018-03-25T10:55:08.613Z,100092.61
2018-03-25T10:57:37.283Z,100091.97
2018-03-25T11:00:06.466Z,100102.01
2018-03-25T11:02:34.965Z,100094.95
2018-03-25T11:05:06.797Z,100082.56
2018-03-25T11:07:35.408Z,100083.30
2018-03-25T11:10:07.513Z,100081.84
2018-03-25T11:12:35.828Z,100090.19
2018-03-25T11:15:07.157Z,100088.42
2018-03-25T11:17:35.673Z,100099.72
2018-03-25T11:20:07.678Z,100089.16
2018-03-25T11:22:35.981Z,100089.34
2018-03-25T11:25:07.213Z,100080.72
2018-03-25T11:27:35.742Z,100082.68
2018-03-25T11:30:07.168Z,100090.97
2018-03-25T11:32:36.117Z,100093.89
2018-03-25T11:35:09.247Z,100088.98
2018-03-25T11:37:37.540Z,100090.50
2018-03-25T11:40:06.154Z,100084.20
2018-03-25T11:42:34.572Z,100087.69
2018-03-25T11:45:09.750Z,100085.77
2018-03-25T11:47:38.064Z,100079.02
2018-03-25T11:50:06.815Z,100081.91
2018-03-25T11:52:35.086Z,100079.22
2018-03-25T11:55:06.417Z,100078.40
2018-03-25T11:57:34.880Z,100080.12
2018-03-25T12:00:06.442Z,100073.53
2018-03-25T12:02:34.845Z,100080.69
2018-03-25T12:05:08.804Z,100078.84
2018-03-25T12:07:37.098Z,100085.72
2018-03-25T12:10:06.951Z,100081.05
2018-03-25T12:12:35.606Z,100082.52
2018-03-25T12:15:07.733Z,100083.01
2018-03-25T12:17:36.257Z,100083.43
2018-03-25T12:20:06.193Z,100078.44
2018-03-25T12:22:34.475Z,100083.41
2018-03-25T12:25:09.765Z,100079.78
2018-03-25T12:27:38.061Z,100084.09
2018-03-25T12:30:06.617Z,100084.81
2018-03-25T12:32:34.862Z,100081.92
2018-03-25T12:35:07.142Z,100078.14
2018-03-25T12:37:39.105Z,100066.97
2018-03-25T12:40:07.432Z,100072.55
2018-03-25T12:42:36.156Z,100067.80
2018-03-25T12:45:08.307Z,100070.69
2018-03-25T12:47:36.586Z,100062.98
2018-03-25T12:50:08.749Z,100073.48
2018-03-25T12:52:37.084Z,100074.17
2018-03-25T12:55:07.182Z,100072.34
2018-03-25T12:57:35.636Z,100069.64
2018-03-25T13:00:06.874Z,100073.39
2018-03-25T13:02:35.486Z,100076.48
2018-03-25T13:05:07.039Z,100082.55
2018-03-25T13:07:35.556Z,100079.72
2018-03-25T13:10:06.289Z,100072.44
2018-03-25T13:12:34.569Z,100073.30
2018-03-25T13:15:06.290Z,100079.80
2018-03-25T13:17:34.638Z,100077.17
2018-03-25T13:20:06.201Z,100072.26
2018-03-25T13:22:35.186Z,100074.36
2018-03-25T13:25:07.250Z,100069.97
2018-03-25T13:27:35.544Z,100075.55
2018-03-25T13:30:07.784Z,100073.23
2018-03-25T13:32:36.094Z,100083.48
2018-03-25T13:35:07.418Z,100077.76
2018-03-25T13:37:35.732Z,100079.87
2018-03-25T13:40:08.066Z,100081.66
2018-03-25T13:42:36.377Z,100081.84
2018-03-25T13:45:06.214Z,100082.66
2018-03-25T13:47:34.567Z,100090.95
2018-03-25T13:50:06.134Z,100085.42
2018-03-25T13:52:35.742Z,100088.22
2018-03-25T13:55:07.277Z,100083.89
2018-03-25T13:57:35.596Z,100076.16
2018-03-25T14:00:07.376Z,100080.83
2018-03-25T14:02:35.774Z,100076.30
2018-03-25T14:05:07.782Z,100071.16
2018-03-25T14:07:36.068Z,100077.28
2018-03-25T14:10:07.492Z,100076.52
2018-03-25T14:12:35.765Z,100074.45
2018-03-25T14:15:07.171Z,100072.93
2018-03-25T14:17:35.463Z,100078.95
2018-03-25T14:20:06.325Z,100069.58
2018-03-25T14:22:34.608Z,100071.00
2018-03-25T14:25:06.224Z,100066.22
2018-03-25T14:27:34.523Z,100075.88
2018-03-25T14:30:08.546Z,100069.95
2018-03-25T14:32:37.297Z,100067.22
2018-03-25T14:35:06.740Z,100068.36
2018-03-25T14:37:35.045Z,100074.66
2018-03-25T14:40:06.392Z,100070.94
2018-03-25T14:42:34.682Z,100072.59
2018-03-25T14:45:06.254Z,100075.56
2018-03-25T14:47:34.923Z,100079.45
2018-03-25T14:50:08.878Z,100074.06
2018-03-25T14:52:37.691Z,100074.15
2018-03-25T14:55:06.641Z,100070.42
2018-03-25T14:57:35.763Z,100074.17
2018-03-25T15:00:07.220Z,100074.89
2018-03-25T15:02:35.508Z,100079.27
2018-03-25T15:05:07.369Z,100077.09
2018-03-25T15:07:35.993Z,100071.70
2018-03-25T15:10:07.980Z,100078.77
2018-03-25T15:12:36.345Z,100080.27
2018-03-25T15:15:09.464Z,100080.50
2018-03-25T15:17:37.808Z,100077.24
2018-03-25T15:20:06.793Z,100079.14
2018-03-25T15:22:35.123Z,100076.22
2018-03-25T15:25:07.142Z,100076.09
2018-03-25T15:27:35.440Z,100080.00
2018-03-25T15:30:06.387Z,100085.67
2018-03-25T15:32:34.690Z,100082.19
2018-03-25T15:35:09.854Z,100081.98
2018-03-25T15:37:38.175Z,100086.98
2018-03-25T15:40:06.465Z,100091.63
2018-03-25T15:42:34.813Z,100089.05
2018-03-25T15:45:06.468Z,100084.30
2018-03-25T15:47:34.809Z,100083.64
2018-03-25T15:50:06.941Z,100083.12
2018-03-25T15:52:35.503Z,100075.11
2018-03-25T15:55:06.768Z,100081.42
2018-03-25T15:57:39.030Z,100075.11
2018-03-25T16:00:07.365Z,100087.92
2018-03-25T16:02:35.657Z,100090.53
2018-03-25T16:05:06.409Z,100086.77
2018-03-25T16:07:35.598Z,100090.71
2018-03-25T16:10:07.293Z,100099.33
2018-03-25T16:12:35.638Z,100103.49
2018-03-25T16:15:07.892Z,100099.22
2018-03-25T16:17:36.217Z,100105.74
2018-03-25T16:20:07.267Z,100108.21
2018-03-25T16:22:35.548Z,100107.75
2018-03-25T16:25:07.230Z,100116.48
2018-03-25T16:27:35.572Z,100119.34
2018-03-25T16:30:07.680Z,100125.53
2018-03-25T16:32:36.310Z,100126.27
2018-03-25T16:35:06.155Z,100122.95
2018-03-25T16:37:34.854Z,100122.79
2018-03-25T16:40:06.120Z,100128.81
2018-03-25T16:42:34.425Z,100127.64
2018-03-25T16:45:05.988Z,100132.37
2018-03-25T16:47:34.433Z,100132.06
2018-03-25T16:50:06.460Z,100132.22
2018-03-25T16:52:34.785Z,100136.63
2018-03-25T16:55:06.295Z,100138.30
2018-03-25T16:57:35.412Z,100129.70
2018-03-25T17:00:06.893Z,100142.84
2018-03-25T17:02:35.398Z,100144.59
2018-03-25T17:05:07.408Z,100154.33
2018-03-25T17:07:35.725Z,100156.44
2018-03-25T17:10:07.049Z,100157.80
2018-03-25T17:12:35.394Z,100156.23
2018-03-25T17:15:06.970Z,100168.77
2018-03-25T17:17:35.589Z,100170.74
2018-03-25T17:20:07.337Z,100167.25
2018-03-25T17:22:35.905Z,100172.46
2018-03-25T17:25:07.980Z,100180.91
2018-03-25T17:27:36.266Z,100179.23
2018-03-25T17:30:07.893Z,100182.88
2018-03-25T17:32:36.420Z,100181.77
2018-03-25T17:35:06.540Z,100189.39
2018-03-25T17:37:34.843Z,100192.51
2018-03-25T17:40:08.837Z,100190.91
2018-03-25T17:42:37.134Z,100196.67
2018-03-25T17:45:06.680Z,100195.26
2018-03-25T17:47:34.973Z,100203.21
2018-03-25T17:50:06.279Z,100207.39
2018-03-25T17:52:34.557Z,100210.03
2018-03-25T17:55:06.493Z,100210.99
2018-03-25T17:57:34.825Z,100220.78
2018-03-25T18:00:06.750Z,100220.42
2018-03-25T18:02:35.847Z,100230.39
2018-03-25T18:05:07.294Z,100229.48
2018-03-25T18:07:35.627Z,100236.84
2018-03-25T18:10:07.688Z,100199.82
2018-03-25T18:12:36.018Z,100246.78
2018-03-25T18:15:07.264Z,100252.03
2018-03-25T18:17:35.573Z,100248.13
2018-03-25T18:20:07.697Z,100256.66
2018-03-25T18:22:36.360Z,100258.28
2018-03-25T18:25:06.391Z,100264.77
2018-03-25T18:27:35.147Z,100273.36
2018-03-25T18:30:06.642Z,100280.00
2018-03-25T18:32:34.947Z,100280.76
2018-03-25T18:35:06.375Z,100277.11
2018-03-25T18:37:34.731Z,100278.67
2018-03-25T18:40:06.703Z,100285.30
2018-03-25T18:42:35.249Z,100294.83
2018-03-25T18:45:06.910Z,100297.58
2018-03-25T18:47:35.193Z,100297.39
2018-03-25T18:50:06.739Z,100292.49
2018-03-25T18:52:35.226Z,100303.22
2018-03-25T18:55:06.750Z,100309.99
2018-03-25T18:57:35.066Z,100313.75
2018-03-25T19:00:06.757Z,100312.98
2018-03-25T19:02:35.198Z,100315.03
2018-03-25T19:05:06.336Z,100320.48
2018-03-25T19:07:34.628Z,100326.34
2018-03-25T19:10:06.169Z,100328.89
2018-03-25T19:12:34.458Z,100327.58
2018-03-25T19:15:06.578Z,100336.29
2018-03-25T19:17:34.894Z,100338.53
2018-03-25T19:20:07.248Z,100342.77
2018-03-25T19:22:35.526Z,100342.94
2018-03-25T19:25:06.335Z,100339.22
2018-03-25T19:27:34.639Z,100341.79
2018-03-25T19:30:06.129Z,100347.09
2018-03-25T19:32:34.451Z,100348.45
2018-03-25T19:35:06.366Z,100348.55
2018-03-25T19:37:34.703Z,100348.30
2018-03-25T19:40:09.912Z,100348.00
2018-03-25T19:42:38.263Z,100350.53
2018-03-25T19:45:06.551Z,100336.31
2018-03-25T19:47:34.882Z,100345.67
2018-03-25T19:50:06.439Z,100352.41
2018-03-25T19:52:34.759Z,100349.69
2018-03-25T19:55:06.114Z,100355.30
2018-03-25T19:57:34.444Z,100349.13
2018-03-25T20:00:09.501Z,100366.91
2018-03-25T20:02:37.849Z,100368.97
2018-03-25T20:05:06.346Z,100373.48
2018-03-25T20:07:34.678Z,100373.15
2018-03-25T20:10:06.540Z,100380.25
2018-03-25T20:15:09.425Z,100365.71
2018-03-25T20:17:37.811Z,100391.19
2018-03-25T20:20:07.269Z,100395.47
2018-03-25T20:22:35.558Z,100399.39
2018-03-25T20:25:06.520Z,100401.42
2018-03-25T20:27:35.012Z,100408.31
2018-03-25T20:30:06.435Z,100409.98
2018-03-25T20:32:34.734Z,100405.81
2018-03-25T20:35:06.618Z,100407.66
2018-03-25T20:37:34.939Z,100410.90
2018-03-25T20:40:06.466Z,100411.11
2018-03-25T20:42:34.865Z,100416.45
2018-03-25T20:45:06.732Z,100415.30
2018-03-25T20:47:35.053Z,100418.63
2018-03-25T20:50:07.110Z,100415.28
2018-03-25T20:52:35.628Z,100421.94
2018-03-25T20:55:07.671Z,100425.23
2018-03-25T20:57:35.903Z,100412.23
2018-03-25T21:00:07.946Z,100420.63
2018-03-25T21:02:36.271Z,100416.44
2018-03-25T21:05:08.312Z,100427.81
2018-03-25T21:07:36.706Z,100415.65
2018-03-25T21:10:06.778Z,100416.65
2018-03-25T21:12:35.102Z,100415.44
2018-03-25T21:15:07.152Z,100417.34
2018-03-25T21:17:35.437Z,100423.41
2018-03-25T21:20:07.569Z,100424.27
2018-03-25T21:22:35.889Z,100426.37
2018-03-25T21:25:07.116Z,100428.26
2018-03-25T21:27:36.293Z,100432.39
2018-03-25T21:30:07.621Z,100429.19
2018-03-25T21:32:35.933Z,100429.04
2018-03-25T21:35:07.405Z,100430.06
2018-03-25T21:37:35.912Z,100435.84
2018-03-25T21:40:08.081Z,100437.63
2018-03-25T21:42:36.344Z,100432.84
2018-03-25T21:45:08.246Z,100441.94
2018-03-25T21:47:36.547Z,100439.93
2018-03-25T21:50:07.787Z,100434.42
2018-03-25T21:52:36.353Z,100442.36
2018-03-25T21:55:06.446Z,100440.70
2018-03-25T21:57:34.746Z,100446.77
2018-03-25T22:00:06.227Z,100443.77
2018-03-25T22:02:34.542Z,100444.02
2018-03-25T22:05:07.045Z,100441.13
2018-03-25T22:07:35.354Z,100458.74
2018-03-25T22:10:06.933Z,100462.44
2018-03-25T22:12:35.261Z,100465.45
2018-03-25T22:15:07.301Z,100464.34
2018-03-25T22:17:35.642Z,100463.85
2018-03-25T22:20:06.876Z,100467.99
2018-03-25T22:22:35.174Z,100471.55
2018-03-25T22:25:07.314Z,100474.58
2018-03-25T22:27:35.594Z,100475.20
2018-03-25T22:30:06.891Z,100482.09
2018-03-25T22:32:36.072Z,100476.53
2018-03-25T22:35:07.600Z,100478.75
2018-03-25T22:37:35.874Z,100469.56
2018-03-25T22:40:07.130Z,100470.75
2018-03-25T22:42:35.424Z,100470.17
2018-03-25T22:45:06.785Z,100473.33
2018-03-25T22:47:35.100Z,100469.70
2018-03-25T22:50:06.767Z,100468.21
2018-03-25T22:52:35.061Z,100470.09
2018-03-25T22:55:07.126Z,100467.66
2018-03-25T22:57:35.422Z,100473.11
2018-03-25T23:00:06.180Z,100471.08
2018-03-25T23:02:34.517Z,100479.58
2018-03-25T23:05:05.997Z,100477.70
2018-03-25T23:07:34.282Z,100484.05
2018-03-25T23:10:05.760Z,100489.14
2018-03-25T23:12:34.114Z,100484.39
2018-03-25T23:15:06.008Z,100488.70
2018-03-25T23:17:34.285Z,100488.44
2018-03-25T23:20:05.795Z,100495.55
2018-03-25T23:22:34.104Z,100495.08
2018-03-25T23:25:05.465Z,100500.60
2018-03-25T23:27:33.785Z,100498.50
2018-03-25T23:30:05.776Z,100490.16
2018-03-25T23:32:34.125Z,100494.74
2018-03-25T23:35:06.002Z,100491.52
2018-03-25T23:37:34.304Z,100494.10
2018-03-25T23:40:05.809Z,100494.27
2018-03-25T23:42:34.114Z,100495.23
2018-03-25T23:45:05.485Z,100493.70
2018-03-25T23:47:33.812Z,100485.38
2018-03-25T23:50:05.900Z,100489.02
2018-03-25T23:52:34.234Z,100474.36
2018-03-25T23:55:06.401Z,100489.52
2018-03-25T23:57:35.119Z,100491.70
